sensor_id;sensor_type;location;lat;lon;timestamp;temperature;humidity
7998;DHT22;4044;49.814;7.828;2022-08-23T00:02:05;16.40;71.90
7998;DHT22;4044;49.814;7.828;2022-08-23T00:04:36;16.40;71.10
7998;DHT22;4044;49.814;7.828;2022-08-23T00:07:04;16.40;72.00
7998;DHT22;4044;49.814;7.828;2022-08-23T00:09:30;16.30;73.50
7998;DHT22;4044;49.814;7.828;2022-08-23T00:12:10;16.20;72.50
7998;DHT22;4044;49.814;7.828;2022-08-23T00:14:38;16.10;73.30
7998;DHT22;4044;49.814;7.828;2022-08-23T00:17:06;16.10;71.70
7998;DHT22;4044;49.814;7.828;2022-08-23T00:19:33;16.10;71.40
7998;DHT22;4044;49.814;7.828;2022-08-23T00:21:59;16.00;73.90
7998;DHT22;4044;49.814;7.828;2022-08-23T00:24:25;16.00;71.70
7998;DHT22;4044;49.814;7.828;2022-08-23T00:27:05;16.00;72.50
7998;DHT22;4044;49.814;7.828;2022-08-23T00:29:52;16.00;72.10
7998;DHT22;4044;49.814;7.828;2022-08-23T00:32:21;15.90;73.60
7998;DHT22;4044;49.814;7.828;2022-08-23T00:34:47;15.80;72.10
7998;DHT22;4044;49.814;7.828;2022-08-23T00:37:13;15.80;72.40
7998;DHT22;4044;49.814;7.828;2022-08-23T00:39:40;15.80;72.70
7998;DHT22;4044;49.814;7.828;2022-08-23T00:42:40;15.80;75.50
7998;DHT22;4044;49.814;7.828;2022-08-23T00:48:26;15.80;73.50
7998;DHT22;4044;49.814;7.828;2022-08-23T00:51:10;15.80;73.30
7998;DHT22;4044;49.814;7.828;2022-08-23T00:53:41;15.70;73.30
7998;DHT22;4044;49.814;7.828;2022-08-23T00:56:10;15.70;74.50
7998;DHT22;4044;49.814;7.828;2022-08-23T00:58:36;15.60;75.10
7998;DHT22;4044;49.814;7.828;2022-08-23T01:01:03;15.50;73.80
7998;DHT22;4044;49.814;7.828;2022-08-23T01:03:32;15.30;76.70
7998;DHT22;4044;49.814;7.828;2022-08-23T01:08:59;15.20;75.80
7998;DHT22;4044;49.814;7.828;2022-08-23T01:11:29;15.20;75.00
7998;DHT22;4044;49.814;7.828;2022-08-23T01:14:02;15.30;74.10
7998;DHT22;4044;49.814;7.828;2022-08-23T01:16:35;15.30;74.80
7998;DHT22;4044;49.814;7.828;2022-08-23T01:19:02;15.30;75.60
7998;DHT22;4044;49.814;7.828;2022-08-23T01:21:42;15.20;76.60
7998;DHT22;4044;49.814;7.828;2022-08-23T01:24:10;15.10;75.50
7998;DHT22;4044;49.814;7.828;2022-08-23T01:26:36;15.00;74.40
7998;DHT22;4044;49.814;7.828;2022-08-23T01:29:05;14.90;75.20
7998;DHT22;4044;49.814;7.828;2022-08-23T01:31:31;14.90;75.20
7998;DHT22;4044;49.814;7.828;2022-08-23T01:34:03;14.90;75.00
7998;DHT22;4044;49.814;7.828;2022-08-23T01:36:30;14.80;76.20
7998;DHT22;4044;49.814;7.828;2022-08-23T01:38:55;14.80;78.20
7998;DHT22;4044;49.814;7.828;2022-08-23T01:41:21;14.70;78.10
7998;DHT22;4044;49.814;7.828;2022-08-23T01:43:48;14.70;76.20
7998;DHT22;4044;49.814;7.828;2022-08-23T01:46:17;14.80;77.50
7998;DHT22;4044;49.814;7.828;2022-08-23T01:48:44;14.70;79.30
7998;DHT22;4044;49.814;7.828;2022-08-23T01:51:11;14.70;79.60
7998;DHT22;4044;49.814;7.828;2022-08-23T01:53:37;14.60;78.80
7998;DHT22;4044;49.814;7.828;2022-08-23T01:56:04;14.60;79.10
7998;DHT22;4044;49.814;7.828;2022-08-23T01:58:31;14.60;77.90
7998;DHT22;4044;49.814;7.828;2022-08-23T02:00:57;14.60;77.40
7998;DHT22;4044;49.814;7.828;2022-08-23T02:03:23;14.60;77.40
7998;DHT22;4044;49.814;7.828;2022-08-23T02:05:48;14.60;78.10
7998;DHT22;4044;49.814;7.828;2022-08-23T02:08:14;14.50;78.50
7998;DHT22;4044;49.814;7.828;2022-08-23T02:10:58;14.50;77.80
7998;DHT22;4044;49.814;7.828;2022-08-23T02:13:24;14.50;78.10
7998;DHT22;4044;49.814;7.828;2022-08-23T02:15:50;14.40;79.10
7998;DHT22;4044;49.814;7.828;2022-08-23T02:18:18;14.40;78.70
7998;DHT22;4044;49.814;7.828;2022-08-23T02:20:45;14.40;78.10
7998;DHT22;4044;49.814;7.828;2022-08-23T02:23:11;14.40;79.10
7998;DHT22;4044;49.814;7.828;2022-08-23T02:25:37;14.30;79.00
7998;DHT22;4044;49.814;7.828;2022-08-23T02:28:04;14.30;80.50
7998;DHT22;4044;49.814;7.828;2022-08-23T02:30:29;14.20;79.70
7998;DHT22;4044;49.814;7.828;2022-08-23T02:32:55;14.20;80.20
7998;DHT22;4044;49.814;7.828;2022-08-23T02:35:21;14.10;80.20
7998;DHT22;4044;49.814;7.828;2022-08-23T02:37:47;14.10;79.30
7998;DHT22;4044;49.814;7.828;2022-08-23T02:40:13;14.10;79.10
7998;DHT22;4044;49.814;7.828;2022-08-23T02:42:38;14.10;79.80
7998;DHT22;4044;49.814;7.828;2022-08-23T02:45:04;14.00;80.70
7998;DHT22;4044;49.814;7.828;2022-08-23T02:47:30;14.00;80.20
7998;DHT22;4044;49.814;7.828;2022-08-23T02:49:56;14.00;80.10
7998;DHT22;4044;49.814;7.828;2022-08-23T02:52:21;14.00;79.80
7998;DHT22;4044;49.814;7.828;2022-08-23T02:54:47;14.00;79.90
7998;DHT22;4044;49.814;7.828;2022-08-23T02:57:12;13.80;80.10
7998;DHT22;4044;49.814;7.828;2022-08-23T02:59:38;13.90;78.60
7998;DHT22;4044;49.814;7.828;2022-08-23T03:02:03;13.90;79.50
7998;DHT22;4044;49.814;7.828;2022-08-23T03:04:29;13.90;81.00
7998;DHT22;4044;49.814;7.828;2022-08-23T03:06:55;13.80;80.10
7998;DHT22;4044;49.814;7.828;2022-08-23T03:09:21;13.80;80.20
7998;DHT22;4044;49.814;7.828;2022-08-23T03:11:47;13.80;80.80
7998;DHT22;4044;49.814;7.828;2022-08-23T03:14:14;13.80;81.40
7998;DHT22;4044;49.814;7.828;2022-08-23T03:16:40;13.70;82.10
7998;DHT22;4044;49.814;7.828;2022-08-23T03:19:06;13.70;81.60
7998;DHT22;4044;49.814;7.828;2022-08-23T03:21:32;13.70;81.90
7998;DHT22;4044;49.814;7.828;2022-08-23T03:23:58;13.60;82.00
7998;DHT22;4044;49.814;7.828;2022-08-23T03:26:23;13.60;81.90
7998;DHT22;4044;49.814;7.828;2022-08-23T03:28:49;13.60;81.50
7998;DHT22;4044;49.814;7.828;2022-08-23T03:31:15;13.60;81.70
7998;DHT22;4044;49.814;7.828;2022-08-23T03:33:42;13.50;81.20
7998;DHT22;4044;49.814;7.828;2022-08-23T03:36:09;13.50;81.20
7998;DHT22;4044;49.814;7.828;2022-08-23T03:38:36;13.50;81.10
7998;DHT22;4044;49.814;7.828;2022-08-23T03:41:03;13.50;81.50
7998;DHT22;4044;49.814;7.828;2022-08-23T03:43:29;13.40;80.60
7998;DHT22;4044;49.814;7.828;2022-08-23T03:45:54;13.40;80.60
7998;DHT22;4044;49.814;7.828;2022-08-23T03:48:20;13.30;82.00
7998;DHT22;4044;49.814;7.828;2022-08-23T03:50:46;13.30;82.00
7998;DHT22;4044;49.814;7.828;2022-08-23T03:53:11;13.30;80.70
7998;DHT22;4044;49.814;7.828;2022-08-23T03:55:38;13.30;82.20
7998;DHT22;4044;49.814;7.828;2022-08-23T03:58:03;13.20;83.20
7998;DHT22;4044;49.814;7.828;2022-08-23T04:00:29;13.20;83.50
7998;DHT22;4044;49.814;7.828;2022-08-23T04:02:54;13.20;82.50
7998;DHT22;4044;49.814;7.828;2022-08-23T04:05:20;13.20;83.00
7998;DHT22;4044;49.814;7.828;2022-08-23T04:07:46;13.20;83.00
7998;DHT22;4044;49.814;7.828;2022-08-23T04:10:12;13.20;83.00
7998;DHT22;4044;49.814;7.828;2022-08-23T04:12:40;13.10;84.20
7998;DHT22;4044;49.814;7.828;2022-08-23T04:15:06;13.10;83.40
7998;DHT22;4044;49.814;7.828;2022-08-23T04:17:33;13.10;84.20
7998;DHT22;4044;49.814;7.828;2022-08-23T04:19:58;13.10;82.60
7998;DHT22;4044;49.814;7.828;2022-08-23T04:22:24;13.10;83.20
7998;DHT22;4044;49.814;7.828;2022-08-23T04:24:49;13.00;83.30
7998;DHT22;4044;49.814;7.828;2022-08-23T04:27:15;13.00;83.80
7998;DHT22;4044;49.814;7.828;2022-08-23T04:29:41;13.00;82.70
7998;DHT22;4044;49.814;7.828;2022-08-23T04:32:08;13.00;82.80
7998;DHT22;4044;49.814;7.828;2022-08-23T04:34:35;13.00;83.40
7998;DHT22;4044;49.814;7.828;2022-08-23T04:37:01;12.90;83.40
7998;DHT22;4044;49.814;7.828;2022-08-23T04:39:27;12.90;84.20
7998;DHT22;4044;49.814;7.828;2022-08-23T04:41:52;12.90;84.00
7998;DHT22;4044;49.814;7.828;2022-08-23T04:44:36;12.90;84.60
7998;DHT22;4044;49.814;7.828;2022-08-23T04:47:02;12.90;84.60
7998;DHT22;4044;49.814;7.828;2022-08-23T04:49:27;12.90;84.30
7998;DHT22;4044;49.814;7.828;2022-08-23T04:51:53;13.00;83.90
7998;DHT22;4044;49.814;7.828;2022-08-23T04:54:19;13.00;84.20
7998;DHT22;4044;49.814;7.828;2022-08-23T04:56:45;12.90;84.80
7998;DHT22;4044;49.814;7.828;2022-08-23T04:59:11;12.90;83.40
7998;DHT22;4044;49.814;7.828;2022-08-23T05:01:37;12.90;85.70
7998;DHT22;4044;49.814;7.828;2022-08-23T05:04:03;12.90;84.80
7998;DHT22;4044;49.814;7.828;2022-08-23T05:06:29;13.00;84.40
7998;DHT22;4044;49.814;7.828;2022-08-23T05:08:56;13.00;85.40
7998;DHT22;4044;49.814;7.828;2022-08-23T05:11:21;13.00;84.90
7998;DHT22;4044;49.814;7.828;2022-08-23T05:13:47;13.00;85.00
7998;DHT22;4044;49.814;7.828;2022-08-23T05:16:13;13.10;83.80
7998;DHT22;4044;49.814;7.828;2022-08-23T05:18:39;13.10;84.80
7998;DHT22;4044;49.814;7.828;2022-08-23T05:21:05;13.10;84.80
7998;DHT22;4044;49.814;7.828;2022-08-23T05:23:31;13.20;84.80
7998;DHT22;4044;49.814;7.828;2022-08-23T05:25:56;13.20;83.90
7998;DHT22;4044;49.814;7.828;2022-08-23T05:28:29;13.30;84.60
7998;DHT22;4044;49.814;7.828;2022-08-23T05:31:02;13.40;83.40
7998;DHT22;4044;49.814;7.828;2022-08-23T05:33:30;13.50;84.10
7998;DHT22;4044;49.814;7.828;2022-08-23T05:35:57;13.50;84.00
7998;DHT22;4044;49.814;7.828;2022-08-23T05:38:24;13.60;83.30
7998;DHT22;4044;49.814;7.828;2022-08-23T05:40:51;13.70;85.00
7998;DHT22;4044;49.814;7.828;2022-08-23T05:43:17;13.80;84.20
7998;DHT22;4044;49.814;7.828;2022-08-23T05:45:43;13.80;85.70
7998;DHT22;4044;49.814;7.828;2022-08-23T05:48:09;13.90;85.10
7998;DHT22;4044;49.814;7.828;2022-08-23T05:50:36;14.00;84.60
7998;DHT22;4044;49.814;7.828;2022-08-23T05:53:02;14.10;84.20
7998;DHT22;4044;49.814;7.828;2022-08-23T05:55:28;14.10;85.80
7998;DHT22;4044;49.814;7.828;2022-08-23T05:57:54;14.20;82.90
7998;DHT22;4044;49.814;7.828;2022-08-23T06:00:19;14.30;83.30
7998;DHT22;4044;49.814;7.828;2022-08-23T06:02:46;14.40;84.60
7998;DHT22;4044;49.814;7.828;2022-08-23T06:05:11;14.50;83.80
7998;DHT22;4044;49.814;7.828;2022-08-23T06:07:38;14.60;81.60
7998;DHT22;4044;49.814;7.828;2022-08-23T06:10:04;14.60;83.20
7998;DHT22;4044;49.814;7.828;2022-08-23T06:12:31;14.80;81.90
7998;DHT22;4044;49.814;7.828;2022-08-23T06:14:57;14.90;82.90
7998;DHT22;4044;49.814;7.828;2022-08-23T06:17:22;14.90;83.70
7998;DHT22;4044;49.814;7.828;2022-08-23T06:19:48;15.00;83.00
7998;DHT22;4044;49.814;7.828;2022-08-23T06:22:14;15.10;83.00
7998;DHT22;4044;49.814;7.828;2022-08-23T06:24:39;15.20;82.30
7998;DHT22;4044;49.814;7.828;2022-08-23T06:27:05;15.30;82.40
7998;DHT22;4044;49.814;7.828;2022-08-23T06:29:31;15.40;82.40
7998;DHT22;4044;49.814;7.828;2022-08-23T06:31:57;15.50;82.10
7998;DHT22;4044;49.814;7.828;2022-08-23T06:34:31;15.60;81.40
7998;DHT22;4044;49.814;7.828;2022-08-23T06:36:59;15.70;82.30
7998;DHT22;4044;49.814;7.828;2022-08-23T06:39:27;15.80;81.80
7998;DHT22;4044;49.814;7.828;2022-08-23T06:41:57;15.90;81.30
7998;DHT22;4044;49.814;7.828;2022-08-23T06:44:24;16.10;81.50
7998;DHT22;4044;49.814;7.828;2022-08-23T06:46:50;16.20;80.50
7998;DHT22;4044;49.814;7.828;2022-08-23T06:49:16;16.30;79.70
7998;DHT22;4044;49.814;7.828;2022-08-23T06:51:44;16.40;79.60
7998;DHT22;4044;49.814;7.828;2022-08-23T06:54:14;16.60;79.00
7998;DHT22;4044;49.814;7.828;2022-08-23T06:56:41;16.70;78.80
7998;DHT22;4044;49.814;7.828;2022-08-23T06:59:07;16.80;78.50
7998;DHT22;4044;49.814;7.828;2022-08-23T07:01:41;16.90;78.50
7998;DHT22;4044;49.814;7.828;2022-08-23T07:04:08;17.00;78.10
7998;DHT22;4044;49.814;7.828;2022-08-23T07:06:34;17.20;77.80
7998;DHT22;4044;49.814;7.828;2022-08-23T07:09:01;17.40;78.20
7998;DHT22;4044;49.814;7.828;2022-08-23T07:11:27;17.50;77.50
7998;DHT22;4044;49.814;7.828;2022-08-23T07:13:58;17.70;76.90
7998;DHT22;4044;49.814;7.828;2022-08-23T07:16:34;17.90;77.00
7998;DHT22;4044;49.814;7.828;2022-08-23T07:19:00;18.00;76.10
7998;DHT22;4044;49.814;7.828;2022-08-23T07:21:25;18.10;76.80
7998;DHT22;4044;49.814;7.828;2022-08-23T07:23:51;18.30;75.20
7998;DHT22;4044;49.814;7.828;2022-08-23T07:26:18;18.40;75.20
7998;DHT22;4044;49.814;7.828;2022-08-23T07:28:43;18.60;75.50
7998;DHT22;4044;49.814;7.828;2022-08-23T07:31:28;18.70;74.50
7998;DHT22;4044;49.814;7.828;2022-08-23T07:33:59;18.80;73.60
7998;DHT22;4044;49.814;7.828;2022-08-23T07:36:26;19.00;74.10
7998;DHT22;4044;49.814;7.828;2022-08-23T07:38:53;19.10;73.60
7998;DHT22;4044;49.814;7.828;2022-08-23T07:41:19;19.20;73.20
7998;DHT22;4044;49.814;7.828;2022-08-23T07:43:45;19.40;72.60
7998;DHT22;4044;49.814;7.828;2022-08-23T07:46:12;19.50;72.20
7998;DHT22;4044;49.814;7.828;2022-08-23T07:48:38;19.60;72.00
7998;DHT22;4044;49.814;7.828;2022-08-23T07:51:07;19.80;72.10
7998;DHT22;4044;49.814;7.828;2022-08-23T07:53:34;20.00;71.40
7998;DHT22;4044;49.814;7.828;2022-08-23T07:56:07;20.20;71.10
7998;DHT22;4044;49.814;7.828;2022-08-23T07:58:33;20.40;69.80
7998;DHT22;4044;49.814;7.828;2022-08-23T08:01:12;20.50;69.80
7998;DHT22;4044;49.814;7.828;2022-08-23T08:03:41;20.60;68.60
7998;DHT22;4044;49.814;7.828;2022-08-23T08:06:10;20.70;68.40
7998;DHT22;4044;49.814;7.828;2022-08-23T08:08:37;20.90;69.00
7998;DHT22;4044;49.814;7.828;2022-08-23T08:11:05;21.00;67.30
7998;DHT22;4044;49.814;7.828;2022-08-23T08:13:30;21.20;68.00
7998;DHT22;4044;49.814;7.828;2022-08-23T08:15:56;21.30;66.40
7998;DHT22;4044;49.814;7.828;2022-08-23T08:18:22;21.50;66.00
7998;DHT22;4044;49.814;7.828;2022-08-23T08:20:48;21.60;66.00
7998;DHT22;4044;49.814;7.828;2022-08-23T08:23:13;21.70;66.30
7998;DHT22;4044;49.814;7.828;2022-08-23T08:25:39;21.80;66.80
7998;DHT22;4044;49.814;7.828;2022-08-23T08:28:04;22.00;66.20
7998;DHT22;4044;49.814;7.828;2022-08-23T08:30:30;22.10;64.50
7998;DHT22;4044;49.814;7.828;2022-08-23T08:32:55;22.30;63.40
7998;DHT22;4044;49.814;7.828;2022-08-23T08:35:21;22.50;64.30
7998;DHT22;4044;49.814;7.828;2022-08-23T08:37:46;22.60;63.80
7998;DHT22;4044;49.814;7.828;2022-08-23T08:40:12;22.70;62.50
7998;DHT22;4044;49.814;7.828;2022-08-23T08:45:44;23.00;61.00
7998;DHT22;4044;49.814;7.828;2022-08-23T08:48:14;23.20;61.80
7998;DHT22;4044;49.814;7.828;2022-08-23T08:50:46;23.30;61.50
7998;DHT22;4044;49.814;7.828;2022-08-23T08:53:36;23.50;60.70
7998;DHT22;4044;49.814;7.828;2022-08-23T08:56:23;23.60;60.70
7998;DHT22;4044;49.814;7.828;2022-08-23T08:58:52;23.70;60.70
7998;DHT22;4044;49.814;7.828;2022-08-23T09:01:19;23.80;58.80
7998;DHT22;4044;49.814;7.828;2022-08-23T09:03:46;23.90;58.10
7998;DHT22;4044;49.814;7.828;2022-08-23T09:16:56;24.50;58.80
7998;DHT22;4044;49.814;7.828;2022-08-23T09:19:23;24.60;56.90
7998;DHT22;4044;49.814;7.828;2022-08-23T09:21:57;24.70;57.00
7998;DHT22;4044;49.814;7.828;2022-08-23T09:24:24;24.90;57.40
7998;DHT22;4044;49.814;7.828;2022-08-23T09:26:50;25.00;58.40
7998;DHT22;4044;49.814;7.828;2022-08-23T09:29:30;25.10;58.20
7998;DHT22;4044;49.814;7.828;2022-08-23T09:32:02;25.30;58.00
7998;DHT22;4044;49.814;7.828;2022-08-23T09:37:06;25.60;57.80
7998;DHT22;4044;49.814;7.828;2022-08-23T09:39:38;25.80;57.60
7998;DHT22;4044;49.814;7.828;2022-08-23T09:42:11;25.80;55.70
7998;DHT22;4044;49.814;7.828;2022-08-23T09:44:49;26.00;55.30
7998;DHT22;4044;49.814;7.828;2022-08-23T09:47:16;26.10;56.20
7998;DHT22;4044;49.814;7.828;2022-08-23T09:49:44;26.30;56.20
7998;DHT22;4044;49.814;7.828;2022-08-23T09:52:34;26.40;55.50
7998;DHT22;4044;49.814;7.828;2022-08-23T09:55:08;26.60;54.80
7998;DHT22;4044;49.814;7.828;2022-08-23T09:57:35;26.90;55.00
7998;DHT22;4044;49.814;7.828;2022-08-23T10:00:22;27.00;54.80
7998;DHT22;4044;49.814;7.828;2022-08-23T10:02:48;27.20;54.70
7998;DHT22;4044;49.814;7.828;2022-08-23T10:07:42;27.50;51.90
7998;DHT22;4044;49.814;7.828;2022-08-23T10:10:26;27.50;53.00
7998;DHT22;4044;49.814;7.828;2022-08-23T10:12:53;27.60;52.10
7998;DHT22;4044;49.814;7.828;2022-08-23T10:15:22;27.80;53.50
7998;DHT22;4044;49.814;7.828;2022-08-23T10:18:04;28.00;53.90
7998;DHT22;4044;49.814;7.828;2022-08-23T10:20:36;28.30;53.50
7998;DHT22;4044;49.814;7.828;2022-08-23T10:23:18;28.50;52.80
7998;DHT22;4044;49.814;7.828;2022-08-23T10:26:15;28.80;51.90
7998;DHT22;4044;49.814;7.828;2022-08-23T10:28:57;29.10;50.60
7998;DHT22;4044;49.814;7.828;2022-08-23T10:37:54;29.60;50.70
7998;DHT22;4044;49.814;7.828;2022-08-23T10:40:28;29.90;49.00
7998;DHT22;4044;49.814;7.828;2022-08-23T10:43:07;29.90;48.60
7998;DHT22;4044;49.814;7.828;2022-08-23T10:45:39;30.10;50.30
7998;DHT22;4044;49.814;7.828;2022-08-23T10:48:25;30.30;50.10
7998;DHT22;4044;49.814;7.828;2022-08-23T10:50:57;30.40;48.50
7998;DHT22;4044;49.814;7.828;2022-08-23T10:53:34;30.30;46.40
7998;DHT22;4044;49.814;7.828;2022-08-23T10:56:02;30.60;49.60
7998;DHT22;4044;49.814;7.828;2022-08-23T10:58:45;30.80;48.00
7998;DHT22;4044;49.814;7.828;2022-08-23T11:01:18;31.00;46.90
7998;DHT22;4044;49.814;7.828;2022-08-23T11:09:04;31.30;47.40
7998;DHT22;4044;49.814;7.828;2022-08-23T11:14:10;31.60;44.60
7998;DHT22;4044;49.814;7.828;2022-08-23T11:16:38;31.60;44.80
7998;DHT22;4044;49.814;7.828;2022-08-23T11:19:14;31.70;44.30
7998;DHT22;4044;49.814;7.828;2022-08-23T11:24:54;32.10;44.50
7998;DHT22;4044;49.814;7.828;2022-08-23T11:27:40;32.30;44.80
7998;DHT22;4044;49.814;7.828;2022-08-23T11:32:59;32.50;43.30
7998;DHT22;4044;49.814;7.828;2022-08-23T11:35:39;32.70;45.50
7998;DHT22;4044;49.814;7.828;2022-08-23T11:38:05;33.10;43.80
7998;DHT22;4044;49.814;7.828;2022-08-23T11:45:46;34.80;41.20
7998;DHT22;4044;49.814;7.828;2022-08-23T11:48:34;35.20;40.90
7998;DHT22;4044;49.814;7.828;2022-08-23T11:51:04;35.10;40.80
7998;DHT22;4044;49.814;7.828;2022-08-23T11:58:45;35.30;41.10
7998;DHT22;4044;49.814;7.828;2022-08-23T12:01:28;35.70;40.30
7998;DHT22;4044;49.814;7.828;2022-08-23T12:06:49;35.70;40.30
7998;DHT22;4044;49.814;7.828;2022-08-23T12:14:37;35.60;38.20
7998;DHT22;4044;49.814;7.828;2022-08-23T12:19:42;35.30;39.50
7998;DHT22;4044;49.814;7.828;2022-08-23T12:22:12;34.70;37.30
7998;DHT22;4044;49.814;7.828;2022-08-23T12:24:45;34.70;39.30
7998;DHT22;4044;49.814;7.828;2022-08-23T12:30:31;37.20;37.50
7998;DHT22;4044;49.814;7.828;2022-08-23T12:35:52;36.30;36.30
7998;DHT22;4044;49.814;7.828;2022-08-23T12:40:52;35.50;39.00
7998;DHT22;4044;49.814;7.828;2022-08-23T12:43:25;35.40;39.90
7998;DHT22;4044;49.814;7.828;2022-08-23T12:45:57;35.50;40.60
7998;DHT22;4044;49.814;7.828;2022-08-23T12:48:25;37.30;39.00
7998;DHT22;4044;49.814;7.828;2022-08-23T12:53:27;38.10;37.70
7998;DHT22;4044;49.814;7.828;2022-08-23T12:56:01;39.30;35.40
7998;DHT22;4044;49.814;7.828;2022-08-23T12:58:29;38.60;36.10
7998;DHT22;4044;49.814;7.828;2022-08-23T13:00:58;38.20;36.20
7998;DHT22;4044;49.814;7.828;2022-08-23T13:03:38;39.00;35.70
7998;DHT22;4044;49.814;7.828;2022-08-23T13:06:07;39.80;35.00
7998;DHT22;4044;49.814;7.828;2022-08-23T13:11:07;41.70;33.30
7998;DHT22;4044;49.814;7.828;2022-08-23T13:13:36;41.30;33.60
7998;DHT22;4044;49.814;7.828;2022-08-23T13:16:26;40.70;33.80
7998;DHT22;4044;49.814;7.828;2022-08-23T13:18:53;40.20;34.00
7998;DHT22;4044;49.814;7.828;2022-08-23T13:21:26;39.80;34.50
7998;DHT22;4044;49.814;7.828;2022-08-23T13:23:57;39.00;34.80
7998;DHT22;4044;49.814;7.828;2022-08-23T13:26:34;38.70;34.90
7998;DHT22;4044;49.814;7.828;2022-08-23T13:29:22;38.40;35.50
7998;DHT22;4044;49.814;7.828;2022-08-23T13:31:56;38.10;36.10
7998;DHT22;4044;49.814;7.828;2022-08-23T13:34:44;40.20;34.70
7998;DHT22;4044;49.814;7.828;2022-08-23T13:37:24;42.10;32.20
7998;DHT22;4044;49.814;7.828;2022-08-23T13:39:54;41.60;31.50
7998;DHT22;4044;49.814;7.828;2022-08-23T13:47:59;39.80;34.20
7998;DHT22;4044;49.814;7.828;2022-08-23T13:50:29;38.90;34.20
7998;DHT22;4044;49.814;7.828;2022-08-23T13:52:55;38.20;35.00
7998;DHT22;4044;49.814;7.828;2022-08-23T13:55:22;37.40;35.10
7998;DHT22;4044;49.814;7.828;2022-08-23T13:57:48;36.60;35.60
7998;DHT22;4044;49.814;7.828;2022-08-23T14:00:14;36.00;37.50
7998;DHT22;4044;49.814;7.828;2022-08-23T14:02:39;35.90;37.00
7998;DHT22;4044;49.814;7.828;2022-08-23T14:05:06;37.20;36.70
7998;DHT22;4044;49.814;7.828;2022-08-23T14:07:32;39.20;35.20
7998;DHT22;4044;49.814;7.828;2022-08-23T14:09:58;41.10;33.30
7998;DHT22;4044;49.814;7.828;2022-08-23T14:12:27;43.00;32.20
7998;DHT22;4044;49.814;7.828;2022-08-23T14:14:55;43.60;30.10
7998;DHT22;4044;49.814;7.828;2022-08-23T14:17:21;43.90;29.60
7998;DHT22;4044;49.814;7.828;2022-08-23T14:19:47;43.80;29.20
7998;DHT22;4044;49.814;7.828;2022-08-23T14:22:13;43.20;29.60
7998;DHT22;4044;49.814;7.828;2022-08-23T14:24:39;41.80;29.90
7998;DHT22;4044;49.814;7.828;2022-08-23T14:27:05;40.80;31.40
7998;DHT22;4044;49.814;7.828;2022-08-23T14:29:31;40.30;32.60
7998;DHT22;4044;49.814;7.828;2022-08-23T14:31:58;41.10;31.70
7998;DHT22;4044;49.814;7.828;2022-08-23T14:34:25;42.60;30.30
7998;DHT22;4044;49.814;7.828;2022-08-23T14:36:51;42.10;30.90
7998;DHT22;4044;49.814;7.828;2022-08-23T14:39:19;41.00;29.90
7998;DHT22;4044;49.814;7.828;2022-08-23T14:41:45;40.20;31.20
7998;DHT22;4044;49.814;7.828;2022-08-23T14:44:10;39.60;33.80
7998;DHT22;4044;49.814;7.828;2022-08-23T14:46:38;39.00;32.40
7998;DHT22;4044;49.814;7.828;2022-08-23T14:49:04;37.80;32.30
7998;DHT22;4044;49.814;7.828;2022-08-23T14:51:36;37.50;32.90
7998;DHT22;4044;49.814;7.828;2022-08-23T14:54:05;36.80;33.30
7998;DHT22;4044;49.814;7.828;2022-08-23T14:56:32;36.30;34.40
7998;DHT22;4044;49.814;7.828;2022-08-23T14:58:59;35.90;34.20
7998;DHT22;4044;49.814;7.828;2022-08-23T15:01:25;35.80;34.40
7998;DHT22;4044;49.814;7.828;2022-08-23T15:03:50;35.80;34.80
7998;DHT22;4044;49.814;7.828;2022-08-23T15:06:17;35.80;35.50
7998;DHT22;4044;49.814;7.828;2022-08-23T15:08:44;37.20;35.20
7998;DHT22;4044;49.814;7.828;2022-08-23T15:11:10;39.10;32.90
7998;DHT22;4044;49.814;7.828;2022-08-23T15:13:37;40.60;31.70
7998;DHT22;4044;49.814;7.828;2022-08-23T15:16:07;42.10;30.40
7998;DHT22;4044;49.814;7.828;2022-08-23T15:18:34;43.20;30.30
7998;DHT22;4044;49.814;7.828;2022-08-23T15:21:02;44.60;28.80
7998;DHT22;4044;49.814;7.828;2022-08-23T15:23:28;45.40;28.40
7998;DHT22;4044;49.814;7.828;2022-08-23T15:25:54;45.20;27.70
7998;DHT22;4044;49.814;7.828;2022-08-23T15:28:21;45.30;28.80
7998;DHT22;4044;49.814;7.828;2022-08-23T15:30:48;45.70;27.40
7998;DHT22;4044;49.814;7.828;2022-08-23T15:33:14;45.00;27.20
7998;DHT22;4044;49.814;7.828;2022-08-23T15:35:47;44.90;28.40
7998;DHT22;4044;49.814;7.828;2022-08-23T15:38:15;45.80;28.20
7998;DHT22;4044;49.814;7.828;2022-08-23T15:40:41;46.60;27.10
7998;DHT22;4044;49.814;7.828;2022-08-23T15:43:07;46.90;27.20
7998;DHT22;4044;49.814;7.828;2022-08-23T15:45:33;47.80;28.00
7998;DHT22;4044;49.814;7.828;2022-08-23T15:48:00;48.30;27.00
7998;DHT22;4044;49.814;7.828;2022-08-23T15:50:29;48.90;27.20
7998;DHT22;4044;49.814;7.828;2022-08-23T15:52:56;49.30;26.30
7998;DHT22;4044;49.814;7.828;2022-08-23T15:55:24;49.50;26.90
7998;DHT22;4044;49.814;7.828;2022-08-23T15:57:52;49.10;26.40
7998;DHT22;4044;49.814;7.828;2022-08-23T16:00:20;49.00;26.20
7998;DHT22;4044;49.814;7.828;2022-08-23T16:02:46;48.20;27.30
7998;DHT22;4044;49.814;7.828;2022-08-23T16:05:12;48.70;27.20
7998;DHT22;4044;49.814;7.828;2022-08-23T16:07:40;48.50;26.60
7998;DHT22;4044;49.814;7.828;2022-08-23T16:10:07;48.40;27.00
7998;DHT22;4044;49.814;7.828;2022-08-23T16:12:33;47.20;26.80
7998;DHT22;4044;49.814;7.828;2022-08-23T16:14:59;46.50;28.00
7998;DHT22;4044;49.814;7.828;2022-08-23T16:17:24;47.00;27.60
7998;DHT22;4044;49.814;7.828;2022-08-23T16:19:51;47.60;27.40
7998;DHT22;4044;49.814;7.828;2022-08-23T16:22:17;48.20;26.80
7998;DHT22;4044;49.814;7.828;2022-08-23T16:24:43;48.60;26.90
7998;DHT22;4044;49.814;7.828;2022-08-23T16:27:09;48.80;26.40
7998;DHT22;4044;49.814;7.828;2022-08-23T16:29:35;48.70;26.40
7998;DHT22;4044;49.814;7.828;2022-08-23T16:32:04;48.80;26.30
7998;DHT22;4044;49.814;7.828;2022-08-23T16:34:31;48.60;26.80
7998;DHT22;4044;49.814;7.828;2022-08-23T16:36:58;48.60;26.60
7998;DHT22;4044;49.814;7.828;2022-08-23T16:39:26;48.20;26.10
7998;DHT22;4044;49.814;7.828;2022-08-23T16:41:52;47.30;26.60
7998;DHT22;4044;49.814;7.828;2022-08-23T16:44:17;46.60;27.00
7998;DHT22;4044;49.814;7.828;2022-08-23T16:46:43;45.90;27.30
7998;DHT22;4044;49.814;7.828;2022-08-23T16:49:10;45.60;27.40
7998;DHT22;4044;49.814;7.828;2022-08-23T16:51:36;45.40;27.50
7998;DHT22;4044;49.814;7.828;2022-08-23T16:54:03;45.10;27.90
7998;DHT22;4044;49.814;7.828;2022-08-23T16:56:30;44.80;28.10
7998;DHT22;4044;49.814;7.828;2022-08-23T16:58:56;44.30;28.10
7998;DHT22;4044;49.814;7.828;2022-08-23T17:01:21;43.50;28.30
7998;DHT22;4044;49.814;7.828;2022-08-23T17:03:47;42.80;28.80
7998;DHT22;4044;49.814;7.828;2022-08-23T17:06:13;42.60;29.00
7998;DHT22;4044;49.814;7.828;2022-08-23T17:08:39;42.80;28.80
7998;DHT22;4044;49.814;7.828;2022-08-23T17:11:06;43.10;28.80
7998;DHT22;4044;49.814;7.828;2022-08-23T17:13:34;43.20;28.70
7998;DHT22;4044;49.814;7.828;2022-08-23T17:16:00;43.00;28.90
7998;DHT22;4044;49.814;7.828;2022-08-23T17:18:26;42.60;29.10
7998;DHT22;4044;49.814;7.828;2022-08-23T17:20:52;41.90;29.20
7998;DHT22;4044;49.814;7.828;2022-08-23T17:23:17;40.90;29.90
7998;DHT22;4044;49.814;7.828;2022-08-23T17:25:43;40.00;30.30
7998;DHT22;4044;49.814;7.828;2022-08-23T17:28:13;39.10;31.30
7998;DHT22;4044;49.814;7.828;2022-08-23T17:30:39;38.30;31.70
7998;DHT22;4044;49.814;7.828;2022-08-23T17:33:04;37.60;32.20
7998;DHT22;4044;49.814;7.828;2022-08-23T17:35:31;36.90;33.30
7998;DHT22;4044;49.814;7.828;2022-08-23T17:37:57;36.20;33.80